Time;durP1;ratioP1;P1;durP2;ratioP2;P2;SDS_P1;SDS_P2;PMS_P1;PMS_P2;Temp;Humidity;BMP_temperature;BMP_pressure;BME280_temperature;BME280_humidity;BME280_pressure;Samples;Min_cycle;Max_cycle;Signal;HPM_P1;HPM_P2
2021/11/16 00:01:18;;;;;;;57.33;27.70;;;;;;;7.31;100.00;96691.91;5002611;28;20078;-55
2021/11/16 00:03:47;;;;;;;59.15;28.98;;;;;;;7.63;100.00;96696.44;4994042;28;20076;-58
2021/11/16 00:06:15;;;;;;;60.35;28.52;;;;;;;8.35;100.00;96693.31;4993798;28;20073;-52
2021/11/16 00:08:44;;;;;;;57.70;27.58;;;;;;;7.91;100.00;96703.78;4991105;28;20078;-56
2021/11/16 00:11:12;;;;;;;59.50;29.55;;;;;;;7.85;100.00;96710.38;4995734;28;20080;-58
2021/11/16 00:13:42;;;;;;;60.72;29.20;;;;;;;7.84;100.00;96708.72;4992687;28;20081;-54
2021/11/16 00:16:11;;;;;;;62.72;30.05;;;;;;;7.67;100.00;96703.09;4977035;28;21326;-54
2021/11/16 00:18:39;;;;;;;57.97;29.27;;;;;;;8.17;100.00;96703.53;4988066;28;20069;-55
2021/11/16 00:21:10;;;;;;;55.05;28.63;;;;;;;7.99;100.00;96696.16;4994010;28;20072;-52
2021/11/16 00:23:40;;;;;;;62.08;29.60;;;;;;;8.31;100.00;96706.69;4995470;28;20081;-57
2021/11/16 00:26:12;;;;;;;58.70;29.70;;;;;;;8.84;100.00;96695.38;4997735;28;20072;-52
2021/11/16 00:28:42;;;;;;;65.20;31.08;;;;;;;8.18;100.00;96703.38;4998585;28;20090;-54
2021/11/16 00:31:11;;;;;;;65.18;30.02;;;;;;;7.99;100.00;96701.41;5016507;28;20054;-54
2021/11/16 00:33:39;;;;;;;54.33;27.15;;;;;;;8.68;100.00;96690.56;4994920;28;20088;-55
2021/11/16 00:36:08;;;;;;;66.07;28.67;;;;;;;8.56;100.00;96692.41;4996372;28;20091;-59
2021/11/16 00:38:39;;;;;;;56.22;27.83;;;;;;;8.82;100.00;96684.16;4995837;28;20076;-55
2021/11/16 00:41:08;;;;;;;57.17;28.10;;;;;;;8.27;100.00;96692.13;4997669;28;20074;-55
2021/11/16 00:43:37;;;;;;;55.97;27.27;;;;;;;8.22;100.00;96698.72;4993265;28;20081;-56
2021/11/16 00:46:06;;;;;;;54.30;26.23;;;;;;;8.44;100.00;96697.84;4991519;28;20279;-57
2021/11/16 00:48:35;;;;;;;47.92;25.02;;;;;;;8.27;100.00;96694.75;4995120;28;20065;-56
2021/11/16 00:51:06;;;;;;;54.28;27.33;;;;;;;8.15;100.00;96701.00;4997009;28;20081;-51
2021/11/16 00:53:35;;;;;;;;;;;;;;;7.90;100.00;96694.25;4989330;28;20077;-55
2021/11/16 00:56:05;;;;;;;50.83;25.30;;;;;;;8.27;100.00;96697.38;4973444;28;19961;-55
2021/11/16 00:58:33;;;;;;;53.75;27.77;;;;;;;8.20;100.00;96695.38;4982325;28;20086;-57
2021/11/16 01:01:02;;;;;;;57.22;28.08;;;;;;;8.17;100.00;96701.72;4990488;28;20473;-55
2021/11/16 01:03:33;;;;;;;58.35;28.02;;;;;;;8.21;100.00;96702.31;4989658;28;20543;-58
2021/11/16 01:06:01;;;;;;;48.88;25.20;;;;;;;8.62;100.00;96692.88;4991850;28;20076;-57
2021/11/16 01:08:31;;;;;;;47.75;24.67;;;;;;;8.49;100.00;96687.78;5001514;28;20065;-54
2021/11/16 01:10:59;;;;;;;54.33;26.38;;;;;;;8.34;100.00;96689.84;4994970;28;20085;-56
2021/11/16 01:13:28;;;;;;;49.33;25.48;;;;;;;8.30;100.00;96689.25;4975828;28;20082;-54
2021/11/16 01:15:57;;;;;;;48.70;25.38;;;;;;;8.74;100.00;96687.44;4990875;28;20073;-58
2021/11/16 01:18:27;;;;;;;46.90;24.85;;;;;;;8.81;100.00;96690.41;4998671;28;20082;-54
2021/11/16 01:20:58;;;;;;;48.60;24.27;;;;;;;9.04;100.00;96688.44;4993420;28;20073;-57
2021/11/16 01:23:26;;;;;;;;;;;;;;;8.89;100.00;96695.84;4991049;28;20061;-53
2021/11/16 01:25:55;;;;;;;47.80;23.13;;;;;;;8.66;100.00;96687.22;4990886;28;19976;-56
2021/11/16 01:28:27;;;;;;;47.13;24.80;;;;;;;8.63;100.00;96695.34;5000600;28;20058;-57
2021/11/16 01:30:58;;;;;;;50.45;24.73;;;;;;;8.75;100.00;96699.63;4994707;28;20077;-50
2021/11/16 01:33:29;;;;;;;47.80;23.30;;;;;;;8.99;100.00;96694.09;4989654;28;20512;-58
2021/11/16 01:35:59;;;;;;;50.53;25.33;;;;;;;8.86;100.00;96688.19;4991453;28;20069;-54
2021/11/16 01:38:27;;;;;;;46.83;23.87;;;;;;;8.23;100.00;96706.47;4995815;28;20077;-57
2021/11/16 01:40:56;;;;;;;48.03;24.83;;;;;;;8.12;100.00;96710.91;4991528;28;20497;-53
2021/11/16 01:43:24;;;;;;;48.78;25.90;;;;;;;8.77;100.00;96695.06;4996973;28;20088;-53
2021/11/16 01:45:59;;;;;;;50.03;24.70;;;;;;;8.89;100.00;96684.47;4998681;28;20058;-55
2021/11/16 01:48:29;;;;;;;51.10;26.50;;;;;;;8.82;100.00;96691.22;4993826;28;20080;-55
2021/11/16 01:50:59;;;;;;;47.03;25.50;;;;;;;8.61;100.00;96692.03;4995085;28;20453;-55
2021/11/16 01:53:28;;;;;;;48.05;25.17;;;;;;;8.63;100.00;96692.72;5004134;28;20897;-54
2021/11/16 01:55:57;;;;;;;50.35;25.33;;;;;;;8.85;100.00;96683.09;4992587;28;20088;-58
2021/11/16 01:58:26;;;;;;;49.70;26.02;;;;;;;8.91;100.00;96682.53;4994037;28;20070;-55
2021/11/16 02:00:55;;;;;;;49.72;25.33;;;;;;;8.97;100.00;96688.13;4992270;28;20065;-54
2021/11/16 02:03:24;;;;;;;54.03;26.35;;;;;;;8.79;100.00;96690.50;4992147;28;20116;-53
2021/11/16 02:05:55;;;;;;;55.63;26.15;;;;;;;9.02;100.00;96685.13;4993772;28;20057;-54
2021/11/16 02:08:26;;;;;;;54.22;25.42;;;;;;;9.23;100.00;96687.72;4995013;28;20083;-53
2021/11/16 02:10:55;;;;;;;;;;;;;;;8.94;100.00;96688.38;4995572;28;20077;-57
2021/11/16 02:13:23;;;;;;;55.17;26.90;;;;;;;9.26;100.00;96685.69;5001519;28;19967;-58
2021/11/16 02:15:53;;;;;;;64.85;30.10;;;;;;;9.34;100.00;96681.56;4991325;28;20080;-55
2021/11/16 02:18:22;;;;;;;66.07;29.52;;;;;;;8.89;100.00;96677.44;4989070;28;20551;-57
2021/11/16 02:20:52;;;;;;;66.57;31.27;;;;;;;9.04;100.00;96681.38;4994198;28;20191;-55
2021/11/16 02:23:22;;;;;;;64.97;29.48;;;;;;;9.14;100.00;96685.88;4992846;28;20519;-55
2021/11/16 02:25:51;;;;;;;57.17;27.67;;;;;;;9.10;100.00;96677.41;5000167;28;20074;-55
2021/11/16 02:28:21;;;;;;;62.72;26.98;;;;;;;8.70;100.00;96675.47;4996257;28;20073;-59
2021/11/16 02:30:50;;;;;;;58.50;28.45;;;;;;;8.69;100.00;96673.00;5001102;28;20069;-52
2021/11/16 02:33:19;;;;;;;66.30;28.30;;;;;;;8.40;100.00;96678.03;4993288;28;20070;-53
2021/11/16 02:35:47;;;;;;;66.45;29.38;;;;;;;8.70;100.00;96672.03;4994530;28;20077;-54
2021/11/16 02:38:18;;;;;;;73.55;30.95;;;;;;;8.67;100.00;96672.28;4988828;28;20080;-57
2021/11/16 02:40:47;;;;;;;79.68;29.15;;;;;;;8.48;100.00;96672.97;4990455;28;20070;-57
2021/11/16 02:43:15;;;;;;;70.28;29.67;;;;;;;8.65;100.00;96677.69;4995770;28;20070;-57
2021/11/16 02:45:44;;;;;;;66.03;29.55;;;;;;;8.89;100.00;96672.16;4998904;28;20081;-52
2021/11/16 02:48:12;;;;;;;68.60;29.05;;;;;;;8.56;100.00;96665.28;4993869;28;20061;-57
2021/11/16 02:50:42;;;;;;;64.22;29.23;;;;;;;8.45;100.00;96674.06;4999084;28;20066;-56
2021/11/16 02:53:11;;;;;;;63.92;27.98;;;;;;;8.81;100.00;96679.88;4998929;28;20061;-54
2021/11/16 02:55:41;;;;;;;73.88;30.33;;;;;;;8.54;100.00;96683.81;5000096;28;20520;-56
2021/11/16 02:58:10;;;;;;;61.58;28.85;;;;;;;8.62;100.00;96677.94;4994496;28;20445;-57
2021/11/16 03:00:40;;;;;;;65.03;29.52;;;;;;;8.84;100.00;96679.59;4995092;28;20092;-59
2021/11/16 03:03:09;;;;;;;61.88;28.05;;;;;;;8.87;100.00;96681.97;4999649;28;20062;-55
2021/11/16 03:05:38;;;;;;;65.53;29.08;;;;;;;8.71;100.00;96674.53;5016745;28;20066;-52
2021/11/16 03:08:12;;;;;;;61.85;28.67;;;;;;;8.67;100.00;96680.16;4995927;28;20424;-53
2021/11/16 03:10:42;;;;;;;63.83;28.60;;;;;;;8.68;100.00;96687.94;4996412;28;20689;-57
2021/11/16 03:13:11;;;;;;;69.28;29.58;;;;;;;8.84;100.00;96682.22;4997752;28;20084;-52
2021/11/16 03:15:40;;;;;;;63.05;29.35;;;;;;;8.54;100.00;96689.09;4994395;28;20443;-57
2021/11/16 03:18:09;;;;;;;78.63;30.05;;;;;;;8.74;100.00;96687.44;4994381;28;20086;-56
2021/11/16 03:20:39;;;;;;;63.55;28.45;;;;;;;8.85;100.00;96680.44;4992553;28;20074;-54
2021/11/16 03:23:12;;;;;;;67.43;28.77;;;;;;;8.90;100.00;96679.09;4993501;28;20069;-51
2021/11/16 03:25:47;;;;;;;68.40;27.98;;;;;;;8.76;100.00;96682.03;4996283;28;20085;-57
2021/11/16 03:28:16;;;;;;;64.85;28.95;;;;;;;8.99;100.00;96688.00;4999992;28;20470;-54
2021/11/16 03:30:47;;;;;;;78.97;30.75;;;;;;;8.82;100.00;96689.41;4981649;28;20094;-56
2021/11/16 03:33:17;;;;;;;71.57;30.35;;;;;;;8.55;100.00;96680.22;4988992;28;20422;-52
2021/11/16 03:35:46;;;;;;;84.15;30.27;;;;;;;8.69;100.00;96689.59;4995082;28;20069;-57
2021/11/16 03:38:17;;;;;;;67.38;27.83;;;;;;;8.81;100.00;96687.75;4993286;28;20058;-53
2021/11/16 03:40:51;;;;;;;59.65;27.60;;;;;;;8.92;100.00;96684.22;4996676;28;20504;-52
2021/11/16 03:43:20;;;;;;;65.63;27.85;;;;;;;9.00;100.00;96684.41;4997504;28;20058;-56
2021/11/16 03:45:50;;;;;;;79.20;28.75;;;;;;;8.87;100.00;96686.41;4998380;28;20073;-57
2021/11/16 03:48:18;;;;;;;87.05;32.45;;;;;;;8.96;100.00;96683.84;4996178;28;20535;-57
2021/11/16 03:50:47;;;;;;;66.82;28.90;;;;;;;9.02;100.00;96685.97;4987929;28;20085;-53
2021/11/16 03:53:16;;;;;;;98.72;30.08;;;;;;;8.79;100.00;96687.88;4975509;28;20058;-56
2021/11/16 03:55:45;;;;;;;94.03;30.63;;;;;;;8.82;100.00;96683.34;4981068;28;20081;-53
2021/11/16 03:58:17;;;;;;;65.40;27.80;;;;;;;8.86;100.00;96690.81;4995566;28;20077;-52
2021/11/16 04:00:49;;;;;;;67.20;29.25;;;;;;;8.86;100.00;96692.63;4994557;28;20058;-55
2021/11/16 04:03:19;;;;;;;62.25;28.98;;;;;;;8.94;100.00;96683.13;4997230;28;20061;-57
2021/11/16 04:05:48;;;;;;;57.10;27.50;;;;;;;8.85;100.00;96689.16;4991012;28;20068;-56
2021/11/16 04:08:16;;;;;;;69.90;29.55;;;;;;;8.57;100.00;96690.63;5006018;28;20057;-51
2021/11/16 04:10:45;;;;;;;64.18;29.60;;;;;;;8.42;100.00;96684.00;4997370;28;20066;-57
2021/11/16 04:13:15;;;;;;;66.72;29.83;;;;;;;8.49;100.00;96683.34;4993945;28;20069;-57
2021/11/16 04:15:45;;;;;;;65.00;29.27;;;;;;;8.80;100.00;96684.28;5008995;28;20069;-57
2021/11/16 04:18:14;;;;;;;67.05;29.20;;;;;;;9.01;100.00;96684.25;4989324;28;20084;-58
2021/11/16 04:20:45;;;;;;;67.72;31.08;;;;;;;9.10;100.00;96690.56;4991731;28;20050;-53
2021/11/16 04:23:16;;;;;;;68.38;29.30;;;;;;;9.18;100.00;96690.72;5001840;28;20540;-59
2021/11/16 04:25:46;;;;;;;86.35;30.23;;;;;;;9.17;100.00;96693.50;5003923;28;20089;-52
2021/11/16 04:28:17;;;;;;;69.30;29.85;;;;;;;9.15;100.00;96691.03;4997338;28;20198;-55
2021/11/16 04:30:46;;;;;;;61.95;27.90;;;;;;;9.30;100.00;96688.03;4994033;28;20153;-54
2021/11/16 04:33:16;;;;;;;67.75;30.85;;;;;;;9.39;100.00;96690.69;4990094;28;20069;-57
2021/11/16 04:35:44;;;;;;;58.22;25.65;;;;;;;9.28;100.00;96696.88;4992677;28;20503;-57
2021/11/16 04:38:15;;;;;;;59.85;26.85;;;;;;;9.19;100.00;96697.69;4991012;28;20065;-56
2021/11/16 04:40:45;;;;;;;60.80;27.33;;;;;;;9.07;100.00;96705.78;4986978;28;20076;-54
2021/11/16 04:43:18;;;;;;;56.67;25.45;;;;;;;8.74;100.00;96697.94;4993126;28;20085;-56
2021/11/16 04:45:50;;;;;;;56.20;25.95;;;;;;;8.74;100.00;96699.72;4991490;28;20069;-52
2021/11/16 04:48:32;;;;;;;55.15;25.63;;;;;;;8.48;100.00;96686.13;4987552;28;20077;-53
2021/11/16 04:51:19;;;;;;;50.83;23.55;;;;;;;8.64;100.00;96691.78;4983889;28;20429;-58
2021/11/16 04:54:16;;;;;;;49.80;22.83;;;;;;;8.51;100.00;96688.50;4996623;28;20066;-58
2021/11/16 04:59:42;;;;;;;56.55;24.10;;;;;;;8.37;100.00;96699.28;4988148;28;20096;-57
2021/11/16 05:04:57;;;;;;;54.38;24.73;;;;;;;8.61;100.00;96676.28;4989711;28;20104;-54
2021/11/16 05:07:26;;;;;;;47.30;23.15;;;;;;;8.46;100.00;96685.41;4995752;28;20536;-57
2021/11/16 05:09:57;;;;;;;49.38;24.58;;;;;;;8.64;100.00;96696.22;4988365;28;20062;-55
2021/11/16 05:12:27;;;;;;;48.58;21.40;;;;;;;8.13;100.00;96702.09;4997203;28;20064;-55
2021/11/16 05:14:58;;;;;;;45.35;20.33;;;;;;;8.09;100.00;96698.88;4989289;28;20082;-51
2021/11/16 05:17:26;;;;;;;47.40;22.75;;;;;;;8.12;100.00;96697.78;4992514;28;20500;-58
2021/11/16 05:19:56;;;;;;;50.35;22.98;;;;;;;8.79;100.00;96700.19;5006527;28;20595;-57
2021/11/16 05:22:24;;;;;;;50.05;22.75;;;;;;;8.76;100.00;96695.19;5000070;28;20081;-56
2021/11/16 05:24:53;;;;;;;50.72;22.73;;;;;;;8.44;100.00;96697.84;4992745;28;20073;-59
2021/11/16 05:27:21;;;;;;;49.30;22.65;;;;;;;8.62;100.00;96704.22;4991945;28;20066;-55
2021/11/16 05:29:51;;;;;;;47.58;21.13;;;;;;;8.22;100.00;96710.06;4988139;28;20080;-55
2021/11/16 05:32:20;;;;;;;44.47;22.20;;;;;;;8.35;100.00;96706.44;5004323;28;20061;-54
2021/11/16 05:34:49;;;;;;;47.75;22.60;;;;;;;8.45;100.00;96715.28;4995157;28;20492;-56
2021/11/16 05:37:17;;;;;;;48.65;21.98;;;;;;;9.04;100.00;96718.22;4990898;28;20086;-57
2021/11/16 05:39:46;;;;;;;44.55;21.63;;;;;;;8.88;100.00;96709.97;4991388;28;20472;-57
2021/11/16 05:42:18;;;;;;;50.75;22.85;;;;;;;9.24;100.00;96705.19;4990108;28;20062;-54
2021/11/16 05:44:46;;;;;;;45.63;21.95;;;;;;;9.42;100.00;96711.50;4987819;28;20454;-58
2021/11/16 05:47:15;;;;;;;43.30;20.85;;;;;;;9.59;100.00;96710.06;4992981;28;20061;-56
2021/11/16 05:49:45;;;;;;;45.40;21.52;;;;;;;9.08;100.00;96715.31;4991632;28;20085;-59
2021/11/16 05:52:13;;;;;;;44.40;20.98;;;;;;;9.41;100.00;96711.63;4998559;28;20082;-59
2021/11/16 05:54:43;;;;;;;42.90;18.52;;;;;;;9.14;100.00;96699.84;4987500;28;20074;-59
2021/11/16 05:57:12;;;;;;;39.65;19.65;;;;;;;9.37;100.00;96704.97;4987817;28;20069;-58
2021/11/16 05:59:40;;;;;;;43.92;19.42;;;;;;;9.17;100.00;96696.97;4987233;28;20042;-56
2021/11/16 06:02:10;;;;;;;39.50;19.63;;;;;;;8.93;100.00;96705.13;4994521;28;20058;-54
2021/11/16 06:04:40;;;;;;;37.60;19.30;;;;;;;9.37;100.00;96711.06;4989456;28;20117;-56
2021/11/16 06:07:10;;;;;;;40.47;19.15;;;;;;;9.64;100.00;96707.03;4992930;28;21387;-58
2021/11/16 06:09:38;;;;;;;37.78;19.15;;;;;;;8.12;100.00;96718.78;4998121;28;20555;-56
2021/11/16 06:12:08;;;;;;;36.17;17.77;;;;;;;8.42;100.00;96711.09;4987437;28;20074;-57
2021/11/16 06:14:36;;;;;;;36.88;18.45;;;;;;;8.35;100.00;96704.63;5000085;28;20069;-55
2021/11/16 06:17:05;;;;;;;39.75;19.10;;;;;;;8.39;100.00;96707.88;4987579;28;20070;-58
2021/11/16 06:19:35;;;;;;;39.55;19.88;;;;;;;8.33;100.00;96720.53;4993914;28;20082;-56
2021/11/16 06:22:07;;;;;;;37.05;18.60;;;;;;;8.76;100.00;96703.06;4991611;28;20073;-55
2021/11/16 06:24:38;;;;;;;36.92;18.58;;;;;;;8.59;100.00;96706.25;5004015;28;20066;-58
2021/11/16 06:27:08;;;;;;;37.50;18.30;;;;;;;8.67;100.00;96712.56;4996154;28;20470;-56
2021/11/16 06:29:37;;;;;;;36.08;18.45;;;;;;;9.03;100.00;96715.72;4995195;28;20529;-58
2021/11/16 06:32:06;;;;;;;35.88;18.10;;;;;;;8.83;100.00;96719.19;4992922;28;20077;-60
2021/11/16 06:34:36;;;;;;;37.65;18.35;;;;;;;8.91;100.00;96716.72;4995896;28;20489;-58
2021/11/16 06:37:06;;;;;;;40.35;18.80;;;;;;;8.44;100.00;96724.97;4994798;28;20089;-57
2021/11/16 06:39:34;;;;;;;38.15;19.30;;;;;;;8.75;100.00;96718.03;4994253;28;20080;-54
2021/11/16 06:42:06;;;;;;;36.80;18.33;;;;;;;8.87;100.00;96712.69;4993841;28;20066;-58
2021/11/16 06:44:34;;;;;;;38.08;19.27;;;;;;;8.98;100.00;96707.38;4993138;28;20490;-59
2021/11/16 06:47:03;;;;;;;36.65;18.73;;;;;;;9.08;100.00;96710.06;4992124;28;20073;-59
2021/11/16 06:49:33;;;;;;;36.13;17.60;;;;;;;8.85;100.00;96698.84;5008207;28;20062;-58
2021/11/16 06:52:02;;;;;;;34.78;17.98;;;;;;;8.79;100.00;96710.72;4994864;28;20095;-58
2021/11/16 06:54:31;;;;;;;40.83;19.92;;;;;;;8.82;100.00;96709.63;4990982;28;20080;-56
2021/11/16 06:56:59;;;;;;;41.28;19.10;;;;;;;8.87;100.00;96707.44;4990916;28;20084;-53
2021/11/16 06:59:29;;;;;;;35.97;19.00;;;;;;;8.93;100.00;96718.28;4999564;28;20073;-57
2021/11/16 07:01:58;;;;;;;38.53;19.48;;;;;;;8.94;100.00;96719.09;4990655;28;20520;-58
2021/11/16 07:04:35;;;;;;;37.05;18.05;;;;;;;8.99;100.00;96720.41;5004981;28;20806;-56
2021/11/16 07:07:04;;;;;;;37.05;18.60;;;;;;;8.92;100.00;96727.16;5000926;28;20062;-58
2021/11/16 07:09:35;;;;;;;42.05;19.02;;;;;;;8.99;100.00;96725.66;4990924;28;20074;-59
2021/11/16 07:12:08;;;;;;;38.70;18.48;;;;;;;9.02;100.00;96732.47;4991258;28;20507;-56
2021/11/16 07:14:38;;;;;;;36.80;18.70;;;;;;;9.36;100.00;96725.19;5001744;28;20092;-59
2021/11/16 07:17:09;;;;;;;35.72;18.30;;;;;;;9.41;100.00;96737.97;5002198;28;20073;-56
2021/11/16 07:19:39;;;;;;;38.80;18.45;;;;;;;9.23;100.00;96738.56;4992424;28;20078;-57
2021/11/16 07:22:10;;;;;;;39.55;17.88;;;;;;;9.66;100.00;96736.69;4989822;28;20227;-58
2021/11/16 07:24:44;;;;;;;36.00;18.85;;;;;;;9.92;100.00;96735.28;4992734;28;20070;-53
2021/11/16 07:27:14;;;;;;;34.20;17.67;;;;;;;9.93;100.00;96736.94;5007903;28;20096;-58
2021/11/16 07:29:46;;;;;;;36.45;18.10;;;;;;;9.81;100.00;96742.44;5004845;28;20069;-51
2021/11/16 07:32:18;;;;;;;38.47;18.70;;;;;;;9.90;100.00;96741.63;4990282;28;20038;-57
2021/11/16 07:34:50;;;;;;;36.38;18.63;;;;;;;10.17;100.00;96741.03;4990465;28;20166;-60
2021/11/16 07:37:21;;;;;;;37.38;19.20;;;;;;;9.98;100.00;96732.09;4992455;28;20089;-59
2021/11/16 07:39:53;;;;;;;37.83;19.05;;;;;;;9.83;100.00;96741.34;4998982;28;20492;-58
2021/11/16 07:42:24;;;;;;;34.30;17.27;;;;;;;9.72;100.00;96742.25;4995859;28;20065;-58
2021/11/16 07:45:06;;;;;;;41.33;18.25;;;;;;;9.21;100.00;96734.38;4990153;28;20073;-58
2021/11/16 07:47:37;;;;;;;36.40;18.13;;;;;;;9.34;100.00;96748.19;4990231;28;20074;-58
2021/11/16 07:50:08;;;;;;;34.58;17.50;;;;;;;9.73;100.00;96754.47;4990068;28;20058;-57
2021/11/16 07:52:37;;;;;;;35.60;17.75;;;;;;;9.81;100.00;96751.19;4991832;28;20097;-55
2021/11/16 07:55:06;;;;;;;36.65;17.63;;;;;;;10.07;100.00;96748.91;4991891;28;20073;-59
2021/11/16 07:57:43;;;;;;;37.90;19.20;;;;;;;10.33;100.00;96751.91;4989829;28;20069;-56
2021/11/16 08:00:23;;;;;;;32.17;17.08;;;;;;;10.08;100.00;96752.38;5006129;28;20066;-60
2021/11/16 08:02:57;;;;;;;;;;;;;;;9.49;100.00;96749.50;4995312;28;20181;-58
2021/11/16 08:05:37;;;;;;;38.50;18.73;;;;;;;9.16;100.00;96742.66;4990089;28;19972;-54
2021/11/16 08:08:13;;;;;;;36.47;17.38;;;;;;;8.73;100.00;96745.38;4995184;28;20090;-57
2021/11/16 08:10:44;;;;;;;39.05;18.42;;;;;;;8.90;100.00;96759.78;4990185;28;20081;-54
2021/11/16 08:13:20;;;;;;;35.10;18.35;;;;;;;9.27;100.00;96760.19;4995067;28;20502;-54
2021/11/16 08:15:50;;;;;;;34.83;17.98;;;;;;;9.42;100.00;96753.59;5004090;28;20070;-59
2021/11/16 08:18:18;;;;;;;38.67;18.13;;;;;;;9.27;100.00;96766.28;4989323;28;20062;-58
2021/11/16 08:20:47;;;;;;;33.53;17.45;;;;;;;9.22;100.00;96765.84;4989831;28;20070;-56
2021/11/16 08:23:15;;;;;;;39.00;17.83;;;;;;;9.37;100.00;96763.72;4989613;28;20046;-57
2021/11/16 08:25:44;;;;;;;38.45;18.48;;;;;;;9.81;100.00;96758.25;4989916;28;20086;-58
2021/11/16 08:28:12;;;;;;;35.60;17.17;;;;;;;9.13;100.00;96753.44;4991520;28;20081;-59
2021/11/16 08:30:40;;;;;;;35.28;17.27;;;;;;;9.06;100.00;96749.66;5002629;28;20529;-58
2021/11/16 08:33:10;;;;;;;33.30;16.77;;;;;;;9.18;100.00;96750.41;4998166;28;20065;-59
2021/11/16 08:35:45;;;;;;;37.25;17.17;;;;;;;9.02;100.00;96749.09;4992621;28;20062;-57
2021/11/16 08:38:14;;;;;;;34.08;16.08;;;;;;;9.04;100.00;96760.28;4992045;28;20070;-58
2021/11/16 08:40:45;;;;;;;28.92;15.57;;;;;;;8.64;100.00;96765.41;4995127;28;20089;-57
2021/11/16 08:43:16;;;;;;;31.90;15.90;;;;;;;8.47;100.00;96769.41;4991358;28;20077;-57
2021/11/16 08:45:48;;;;;;;31.10;15.45;;;;;;;8.45;100.00;96760.78;4995732;28;20475;-59
2021/11/16 08:48:19;;;;;;;28.35;14.38;;;;;;;8.61;100.00;96768.28;4995448;28;20074;-60
2021/11/16 08:50:50;;;;;;;30.23;14.70;;;;;;;8.49;100.00;96758.75;4989196;28;20077;-57
2021/11/16 08:53:24;;;;;;;28.60;14.50;;;;;;;8.50;100.00;96763.06;4994876;28;20069;-59
2021/11/16 08:55:53;;;;;;;24.88;13.35;;;;;;;8.44;100.00;96761.75;4989575;28;20488;-56
2021/11/16 08:58:25;;;;;;;27.67;13.77;;;;;;;8.35;100.00;96772.97;4998326;28;20089;-58
2021/11/16 09:00:56;;;;;;;23.27;13.02;;;;;;;8.40;100.00;96776.09;4989024;28;20074;-57
2021/11/16 09:03:29;;;;;;;26.25;13.65;;;;;;;8.61;100.00;96785.84;4994893;28;20069;-56
2021/11/16 09:05:59;;;;;;;22.63;12.63;;;;;;;8.69;100.00;96779.00;4990410;28;20516;-51
2021/11/16 09:08:31;;;;;;;21.70;12.00;;;;;;;8.54;100.00;96772.34;4989379;28;20078;-55
2021/11/16 09:11:02;;;;;;;21.63;11.68;;;;;;;8.77;100.00;96766.06;4988630;28;20516;-58
2021/11/16 09:13:32;;;;;;;23.05;11.90;;;;;;;8.59;100.00;96769.34;4999290;28;20540;-58
2021/11/16 09:16:05;;;;;;;23.40;11.80;;;;;;;8.79;100.00;96777.28;4993808;28;20062;-56
2021/11/16 09:18:39;;;;;;;21.33;12.02;;;;;;;9.03;100.00;96773.59;4988701;28;20062;-58
2021/11/16 09:21:09;;;;;;;20.48;11.10;;;;;;;8.55;100.00;96772.22;4992249;28;20074;-53
2021/11/16 09:23:41;;;;;;;21.98;11.25;;;;;;;8.86;100.00;96777.59;4990190;28;20070;-58
2021/11/16 09:26:17;;;;;;;22.38;12.75;;;;;;;8.88;100.00;96778.34;4997343;28;20078;-58
2021/11/16 09:28:49;;;;;;;19.73;11.00;;;;;;;9.18;100.00;96772.31;4991204;28;20565;-59
2021/11/16 09:31:23;;;;;;;21.05;12.00;;;;;;;8.79;100.00;96779.91;4990725;28;20532;-56
2021/11/16 09:33:56;;;;;;;20.45;10.77;;;;;;;8.77;100.00;96773.09;4994369;28;20081;-56
2021/11/16 09:36:26;;;;;;;22.40;12.15;;;;;;;8.92;100.00;96766.59;4997032;28;20417;-58
2021/11/16 09:38:58;;;;;;;18.98;10.52;;;;;;;8.82;100.00;96764.84;4990583;28;20079;-59
2021/11/16 09:41:35;;;;;;;19.83;10.90;;;;;;;9.19;100.00;96763.47;4993667;28;20090;-56
2021/11/16 09:44:10;;;;;;;21.02;10.77;;;;;;;8.88;100.00;96770.44;4988508;28;20062;-59
2021/11/16 09:46:47;;;;;;;16.55;9.95;;;;;;;8.96;100.00;96767.16;4997993;28;20110;-57
2021/11/16 09:49:19;;;;;;;17.02;10.23;;;;;;;9.44;100.00;96770.13;4987723;28;20284;-57
2021/11/16 09:51:59;;;;;;;15.50;9.50;;;;;;;8.98;100.00;96773.13;4987676;28;20054;-56
2021/11/16 09:54:28;;;;;;;19.88;9.60;;;;;;;8.55;100.00;96776.66;5002344;28;20053;-54
2021/11/16 09:57:11;;;;;;;18.33;10.05;;;;;;;8.67;100.00;96780.06;4999965;28;20073;-58
2021/11/16 09:59:41;;;;;;;15.73;9.55;;;;;;;9.02;100.00;96775.41;4988127;28;20065;-55
2021/11/16 10:02:16;;;;;;;15.73;9.35;;;;;;;8.82;100.00;96770.94;4987642;28;20077;-55
2021/11/16 10:04:51;;;;;;;16.20;9.32;;;;;;;8.57;100.00;96772.13;4993172;28;20074;-55
2021/11/16 10:07:21;;;;;;;19.20;10.43;;;;;;;8.50;100.00;96769.16;4990253;28;20078;-57
2021/11/16 10:09:50;;;;;;;17.48;10.25;;;;;;;8.39;100.00;96773.59;4993463;28;20458;-54
2021/11/16 10:12:23;;;;;;;16.40;9.57;;;;;;;8.59;100.00;96767.56;4992086;28;20069;-57
2021/11/16 10:14:54;;;;;;;15.35;8.60;;;;;;;8.45;100.00;96775.72;4996578;28;20073;-56
2021/11/16 10:17:23;;;;;;;15.10;8.93;;;;;;;8.36;100.00;96769.38;4993059;28;20062;-56
2021/11/16 10:19:54;;;;;;;16.48;8.73;;;;;;;8.42;100.00;96761.03;4987399;28;20069;-55
2021/11/16 10:22:23;;;;;;;14.50;8.20;;;;;;;8.65;100.00;96761.81;4990075;28;20492;-57
2021/11/16 10:24:51;;;;;;;15.52;8.95;;;;;;;9.00;100.00;96760.69;4987455;28;20616;-59
2021/11/16 10:27:32;;;;;;;14.23;8.25;;;;;;;8.86;100.00;96766.25;4988065;28;20068;-55
2021/11/16 10:30:17;;;;;;;14.63;8.75;;;;;;;9.00;100.00;96769.41;5004809;28;20066;-57
2021/11/16 10:32:49;;;;;;;14.13;8.63;;;;;;;8.97;100.00;96766.19;4996061;28;20666;-58
2021/11/16 10:35:21;;;;;;;14.40;8.25;;;;;;;8.92;100.00;96761.34;4987290;28;20154;-55
2021/11/16 10:37:52;;;;;;;13.75;8.80;;;;;;;8.86;100.00;96759.19;4999139;28;20081;-55
2021/11/16 10:40:23;;;;;;;13.50;8.52;;;;;;;8.37;100.00;96762.34;4991630;28;20078;-55
2021/11/16 10:42:55;;;;;;;14.07;8.50;;;;;;;8.45;100.00;96762.59;4987341;28;20105;-59
2021/11/16 10:45:26;;;;;;;11.60;7.60;;;;;;;8.47;100.00;96760.69;4997131;28;20066;-56
2021/11/16 10:47:57;;;;;;;;;;;;;;;8.75;100.00;96764.53;4991746;28;20049;-60
2021/11/16 10:50:47;;;;;;;13.48;8.32;;;;;;;9.40;100.00;96757.34;5001624;28;19928;-55
2021/11/16 10:53:19;;;;;;;12.70;8.25;;;;;;;9.02;100.00;96746.47;4997182;28;20053;-54
2021/11/16 10:55:50;;;;;;;12.90;7.53;;;;;;;9.03;100.00;96747.28;4989383;28;20117;-58
2021/11/16 10:58:19;;;;;;;11.88;7.75;;;;;;;8.72;100.00;96751.63;4989548;28;20030;-58
2021/11/16 11:00:51;;;;;;;12.27;7.45;;;;;;;8.78;100.00;96759.00;4986871;28;20545;-57
2021/11/16 11:03:29;;;;;;;11.98;7.78;;;;;;;8.96;100.00;96744.31;4987682;28;20539;-58
2021/11/16 11:06:01;;;;;;;14.10;7.90;;;;;;;9.69;100.00;96750.44;4997491;28;20070;-58
2021/11/16 11:08:33;;;;;;;13.20;7.32;;;;;;;9.35;100.00;96743.75;5004097;28;20068;-57
2021/11/16 11:11:07;;;;;;;13.50;7.80;;;;;;;8.89;100.00;96740.53;4990890;28;20058;-54
2021/11/16 11:13:36;;;;;;;11.20;7.47;;;;;;;8.92;100.00;96735.03;5002016;28;20077;-57
2021/11/16 11:16:15;;;;;;;12.23;7.13;;;;;;;9.42;100.00;96735.19;4991870;28;20372;-56
2021/11/16 11:18:46;;;;;;;11.95;7.43;;;;;;;8.87;100.00;96736.38;4990387;28;20066;-59
2021/11/16 11:21:27;;;;;;;11.05;7.10;;;;;;;9.35;100.00;96730.59;4991099;28;20074;-58
2021/11/16 11:23:57;;;;;;;9.73;6.70;;;;;;;9.02;100.00;96727.22;5002406;28;20069;-57
2021/11/16 11:26:36;;;;;;;10.38;6.47;;;;;;;8.63;100.00;96724.28;4991016;28;20077;-55
2021/11/16 11:29:19;;;;;;;11.10;7.45;;;;;;;8.63;100.00;96718.19;4993589;28;20524;-55
2021/11/16 11:31:51;;;;;;;11.73;7.70;;;;;;;8.50;100.00;96715.75;4990399;28;20077;-54
2021/11/16 11:34:19;;;;;;;11.98;7.38;;;;;;;8.68;100.00;96714.22;4992472;28;20105;-56
2021/11/16 11:36:49;;;;;;;12.38;7.30;;;;;;;8.87;100.00;96717.94;5006890;28;20570;-57
2021/11/16 11:39:22;;;;;;;9.55;6.28;;;;;;;8.62;100.00;96717.34;4994771;28;20065;-54
2021/11/16 11:41:54;;;;;;;9.00;5.80;;;;;;;8.51;100.00;96714.78;4997038;28;20065;-56